Terminal Aerodrome Forecast
Issued by NWS

Home | Current Version | Previous Version | Text Only | Print | Product List | Glossary On
Versions: 1 2 3 4 5 6 7 8 9 10 11 12 13 14 15 16 17 18
000
FTUS45 KCYS 201100
TAFAIA
TAF
KAIA 201120Z 2012/2112 18007KT P6SM SCT250
     FM201600 29011KT P6SM SCT250
     FM202100 32010KT P6SM SCT250
     FM210000 36008KT P6SM SCT250=

USA.gov is the U.S. government's official web portal to all federal, state and local government web resources and services.